sensor_id;sensor_type;location;lat;lon;timestamp;noise_LAeq;noise_LA_min;noise_LA_max;noise_LA01;noise_LA95
67312;Laerm;54211;52.120;5.192;2022-08-25T00:00:01;31.67;29.79;33.86;;
67312;Laerm;54211;52.120;5.192;2022-08-25T00:00:13;31.42;29.38;34.16;;
67312;Laerm;54211;52.120;5.192;2022-08-25T00:00:23;31.14;29.30;33.23;;
67312;Laerm;54211;52.120;5.192;2022-08-25T00:00:34;31.03;29.33;32.87;;
67312;Laerm;54211;52.120;5.192;2022-08-25T00:00:44;31.25;29.55;33.94;;
67312;Laerm;54211;52.120;5.192;2022-08-25T00:00:54;30.96;28.99;32.64;;
67312;Laerm;54211;52.120;5.192;2022-08-25T00:01:12;31.27;29.36;34.09;;
67312;Laerm;54211;52.120;5.192;2022-08-25T00:01:24;31.09;29.27;33.38;;
67312;Laerm;54211;52.120;5.192;2022-08-25T00:01:38;31.13;29.57;33.51;;
67312;Laerm;54211;52.120;5.192;2022-08-25T00:01:59;31.08;29.16;33.54;;
67312;Laerm;54211;52.120;5.192;2022-08-25T00:02:10;31.16;29.13;34.01;;
67312;Laerm;54211;52.120;5.192;2022-08-25T00:02:21;31.02;29.00;33.29;;
67312;Laerm;54211;52.120;5.192;2022-08-25T00:02:31;31.25;29.57;33.92;;
67312;Laerm;54211;52.120;5.192;2022-08-25T00:02:42;31.24;29.32;33.94;;
67312;Laerm;54211;52.120;5.192;2022-08-25T00:02:53;31.09;28.80;33.03;;
67312;Laerm;54211;52.120;5.192;2022-08-25T00:03:03;31.52;29.58;34.23;;
67312;Laerm;54211;52.120;5.192;2022-08-25T00:03:14;31.63;29.63;34.31;;
67312;Laerm;54211;52.120;5.192;2022-08-25T00:03:25;31.53;29.33;34.69;;
67312;Laerm;54211;52.120;5.192;2022-08-25T00:03:36;31.28;29.18;33.47;;
67312;Laerm;54211;52.120;5.192;2022-08-25T00:03:46;31.38;29.44;33.50;;
67312;Laerm;54211;52.120;5.192;2022-08-25T00:03:57;31.35;29.50;33.65;;
67312;Laerm;54211;52.120;5.192;2022-08-25T00:04:09;31.95;29.61;35.93;;
67312;Laerm;54211;52.120;5.192;2022-08-25T00:04:20;31.83;29.79;34.70;;
67312;Laerm;54211;52.120;5.192;2022-08-25T00:04:31;31.70;29.49;34.44;;
67312;Laerm;54211;52.120;5.192;2022-08-25T00:04:41;32.11;29.62;35.07;;
67312;Laerm;54211;52.120;5.192;2022-08-25T00:04:52;31.43;29.44;34.03;;
67312;Laerm;54211;52.120;5.192;2022-08-25T00:05:03;31.63;29.52;33.87;;
67312;Laerm;54211;52.120;5.192;2022-08-25T00:05:13;32.07;29.46;35.19;;
67312;Laerm;54211;52.120;5.192;2022-08-25T00:05:24;31.95;29.76;34.61;;
67312;Laerm;54211;52.120;5.192;2022-08-25T00:05:35;31.75;29.73;34.06;;
67312;Laerm;54211;52.120;5.192;2022-08-25T00:05:45;31.87;29.78;34.53;;
67312;Laerm;54211;52.120;5.192;2022-08-25T00:05:56;31.58;29.62;33.54;;
67312;Laerm;54211;52.120;5.192;2022-08-25T00:06:06;31.87;29.54;34.33;;
67312;Laerm;54211;52.120;5.192;2022-08-25T00:06:18;32.24;29.84;35.46;;
67312;Laerm;54211;52.120;5.192;2022-08-25T00:06:28;31.74;29.35;34.60;;
67312;Laerm;54211;52.120;5.192;2022-08-25T00:06:39;31.91;29.63;34.90;;
67312;Laerm;54211;52.120;5.192;2022-08-25T00:06:50;31.88;29.69;34.27;;
67312;Laerm;54211;52.120;5.192;2022-08-25T00:07:02;31.72;29.81;34.15;;
67312;Laerm;54211;52.120;5.192;2022-08-25T00:07:13;31.68;29.38;34.03;;
67312;Laerm;54211;52.120;5.192;2022-08-25T00:07:23;31.68;29.33;34.38;;
67312;Laerm;54211;52.120;5.192;2022-08-25T00:07:34;31.90;29.69;34.53;;
67312;Laerm;54211;52.120;5.192;2022-08-25T00:07:45;31.60;29.56;34.69;;
67312;Laerm;54211;52.120;5.192;2022-08-25T00:07:55;31.64;29.79;34.32;;
67312;Laerm;54211;52.120;5.192;2022-08-25T00:08:07;31.61;29.77;34.50;;
67312;Laerm;54211;52.120;5.192;2022-08-25T00:08:17;31.37;29.31;34.00;;
67312;Laerm;54211;52.120;5.192;2022-08-25T00:08:28;31.60;29.38;34.04;;
67312;Laerm;54211;52.120;5.192;2022-08-25T00:08:38;31.43;29.57;33.51;;
67312;Laerm;54211;52.120;5.192;2022-08-25T00:08:49;31.55;29.75;34.20;;
67312;Laerm;54211;52.120;5.192;2022-08-25T00:08:59;31.43;29.19;33.90;;
67312;Laerm;54211;52.120;5.192;2022-08-25T00:09:11;31.78;29.50;34.67;;
67312;Laerm;54211;52.120;5.192;2022-08-25T00:09:22;31.70;29.29;34.40;;
67312;Laerm;54211;52.120;5.192;2022-08-25T00:09:33;31.56;29.58;34.48;;
67312;Laerm;54211;52.120;5.192;2022-08-25T00:09:44;31.50;29.57;34.00;;
67312;Laerm;54211;52.120;5.192;2022-08-25T00:09:56;31.45;29.25;34.11;;
67312;Laerm;54211;52.120;5.192;2022-08-25T00:10:06;31.46;29.01;33.67;;
67312;Laerm;54211;52.120;5.192;2022-08-25T00:10:17;31.54;29.58;34.55;;
67312;Laerm;54211;52.120;5.192;2022-08-25T00:10:27;31.68;29.88;34.52;;
67312;Laerm;54211;52.120;5.192;2022-08-25T00:10:38;32.11;29.55;36.79;;
67312;Laerm;54211;52.120;5.192;2022-08-25T00:10:48;31.95;29.44;34.50;;
67312;Laerm;54211;52.120;5.192;2022-08-25T00:11:09;31.73;29.38;33.83;;
67312;Laerm;54211;52.120;5.192;2022-08-25T00:11:22;31.47;29.12;34.33;;
67312;Laerm;54211;52.120;5.192;2022-08-25T00:11:33;31.14;29.09;32.79;;
67312;Laerm;54211;52.120;5.192;2022-08-25T00:11:44;31.39;29.48;33.82;;
67312;Laerm;54211;52.120;5.192;2022-08-25T00:11:55;31.36;29.67;33.00;;
67312;Laerm;54211;52.120;5.192;2022-08-25T00:12:06;31.37;29.78;33.20;;
67312;Laerm;54211;52.120;5.192;2022-08-25T00:12:16;31.30;29.29;33.62;;
67312;Laerm;54211;52.120;5.192;2022-08-25T00:12:27;31.78;29.47;34.01;;
67312;Laerm;54211;52.120;5.192;2022-08-25T00:12:37;31.50;29.67;34.48;;
67312;Laerm;54211;52.120;5.192;2022-08-25T00:12:48;31.47;29.80;33.76;;
67312;Laerm;54211;52.120;5.192;2022-08-25T00:12:58;31.29;29.63;33.01;;
67312;Laerm;54211;52.120;5.192;2022-08-25T00:13:08;31.22;29.71;33.41;;
67312;Laerm;54211;52.120;5.192;2022-08-25T00:13:40;31.43;29.36;34.10;;
67312;Laerm;54211;52.120;5.192;2022-08-25T00:13:54;33.54;30.14;36.83;;
67312;Laerm;54211;52.120;5.192;2022-08-25T00:14:06;33.40;29.95;36.56;;
67312;Laerm;54211;52.120;5.192;2022-08-25T00:14:22;33.01;30.49;35.53;;
67312;Laerm;54211;52.120;5.192;2022-08-25T00:14:34;33.44;30.77;36.22;;
67312;Laerm;54211;52.120;5.192;2022-08-25T00:14:45;33.31;30.42;35.80;;
67312;Laerm;54211;52.120;5.192;2022-08-25T00:14:56;33.13;30.20;36.49;;
67312;Laerm;54211;52.120;5.192;2022-08-25T00:15:07;33.14;30.56;35.33;;
67312;Laerm;54211;52.120;5.192;2022-08-25T00:15:18;33.49;30.31;36.43;;
67312;Laerm;54211;52.120;5.192;2022-08-25T00:15:33;33.07;30.33;36.10;;
67312;Laerm;54211;52.120;5.192;2022-08-25T00:15:43;33.16;30.07;36.70;;
67312;Laerm;54211;52.120;5.192;2022-08-25T00:15:56;33.02;30.38;36.14;;
67312;Laerm;54211;52.120;5.192;2022-08-25T00:16:06;33.22;30.35;35.94;;
67312;Laerm;54211;52.120;5.192;2022-08-25T00:16:17;33.18;30.58;36.76;;
67312;Laerm;54211;52.120;5.192;2022-08-25T00:16:28;32.95;29.98;36.24;;
67312;Laerm;54211;52.120;5.192;2022-08-25T00:16:40;33.30;30.38;36.48;;
67312;Laerm;54211;52.120;5.192;2022-08-25T00:16:51;33.39;30.65;36.29;;
67312;Laerm;54211;52.120;5.192;2022-08-25T00:17:01;33.60;29.81;36.82;;
67312;Laerm;54211;52.120;5.192;2022-08-25T00:17:12;33.15;30.32;35.97;;
67312;Laerm;54211;52.120;5.192;2022-08-25T00:17:23;33.26;30.75;35.68;;
67312;Laerm;54211;52.120;5.192;2022-08-25T00:17:33;33.39;30.24;36.07;;
67312;Laerm;54211;52.120;5.192;2022-08-25T00:17:44;33.44;30.82;36.39;;
67312;Laerm;54211;52.120;5.192;2022-08-25T00:17:54;33.28;30.68;36.03;;
67312;Laerm;54211;52.120;5.192;2022-08-25T00:18:05;33.49;30.90;35.89;;
67312;Laerm;54211;52.120;5.192;2022-08-25T00:18:15;33.39;30.57;35.52;;
67312;Laerm;54211;52.120;5.192;2022-08-25T00:18:25;33.49;30.63;36.21;;
67312;Laerm;54211;52.120;5.192;2022-08-25T00:18:37;33.45;30.10;35.57;;
67312;Laerm;54211;52.120;5.192;2022-08-25T00:18:51;33.55;30.69;36.55;;
67312;Laerm;54211;52.120;5.192;2022-08-25T00:19:08;33.49;30.39;36.98;;
67312;Laerm;54211;52.120;5.192;2022-08-25T00:19:20;33.49;29.82;36.82;;
67312;Laerm;54211;52.120;5.192;2022-08-25T00:19:32;33.74;30.46;37.02;;
67312;Laerm;54211;52.120;5.192;2022-08-25T00:19:43;33.22;30.75;35.31;;
67312;Laerm;54211;52.120;5.192;2022-08-25T00:19:53;33.09;30.05;35.91;;
67312;Laerm;54211;52.120;5.192;2022-08-25T00:20:04;33.03;29.63;36.08;;
67312;Laerm;54211;52.120;5.192;2022-08-25T00:20:15;33.48;29.95;36.69;;
67312;Laerm;54211;52.120;5.192;2022-08-25T00:20:26;33.14;30.48;35.35;;
67312;Laerm;54211;52.120;5.192;2022-08-25T00:20:37;33.44;30.22;36.41;;
67312;Laerm;54211;52.120;5.192;2022-08-25T00:20:47;32.87;29.75;36.23;;
67312;Laerm;54211;52.120;5.192;2022-08-25T00:20:58;33.38;29.90;36.57;;
67312;Laerm;54211;52.120;5.192;2022-08-25T00:21:08;32.94;30.47;35.73;;
67312;Laerm;54211;52.120;5.192;2022-08-25T00:21:19;33.40;30.08;35.55;;
67312;Laerm;54211;52.120;5.192;2022-08-25T00:21:29;33.12;30.00;36.16;;
67312;Laerm;54211;52.120;5.192;2022-08-25T00:21:41;33.37;30.07;36.33;;
67312;Laerm;54211;52.120;5.192;2022-08-25T00:21:52;33.42;29.55;35.97;;
67312;Laerm;54211;52.120;5.192;2022-08-25T00:22:02;33.34;30.98;35.74;;
67312;Laerm;54211;52.120;5.192;2022-08-25T00:22:13;33.36;29.86;36.37;;
67312;Laerm;54211;52.120;5.192;2022-08-25T00:22:23;33.23;30.29;35.75;;
67312;Laerm;54211;52.120;5.192;2022-08-25T00:22:34;33.61;30.51;36.61;;
67312;Laerm;54211;52.120;5.192;2022-08-25T00:22:44;32.69;29.76;36.25;;
67312;Laerm;54211;52.120;5.192;2022-08-25T00:22:55;30.77;29.10;32.77;;
67312;Laerm;54211;52.120;5.192;2022-08-25T00:23:05;30.84;28.91;32.66;;
67312;Laerm;54211;52.120;5.192;2022-08-25T00:23:16;31.23;28.95;33.33;;
67312;Laerm;54211;52.120;5.192;2022-08-25T00:23:27;31.28;28.96;33.80;;
67312;Laerm;54211;52.120;5.192;2022-08-25T00:23:37;31.17;29.35;33.59;;
67312;Laerm;54211;52.120;5.192;2022-08-25T00:23:48;31.18;29.12;33.25;;
67312;Laerm;54211;52.120;5.192;2022-08-25T00:23:59;31.46;29.24;33.66;;
67312;Laerm;54211;52.120;5.192;2022-08-25T00:24:46;31.24;29.18;34.04;;
67312;Laerm;54211;52.120;5.192;2022-08-25T00:24:56;31.25;28.42;33.50;;
67312;Laerm;54211;52.120;5.192;2022-08-25T00:25:06;31.32;29.09;33.97;;
67312;Laerm;54211;52.120;5.192;2022-08-25T00:25:17;31.69;29.79;34.08;;
67312;Laerm;54211;52.120;5.192;2022-08-25T00:25:28;31.61;29.28;33.76;;
67312;Laerm;54211;52.120;5.192;2022-08-25T00:25:38;31.58;29.59;33.96;;
67312;Laerm;54211;52.120;5.192;2022-08-25T00:25:48;31.76;29.76;34.91;;
67312;Laerm;54211;52.120;5.192;2022-08-25T00:26:00;31.90;29.45;34.52;;
67312;Laerm;54211;52.120;5.192;2022-08-25T00:26:10;32.07;29.42;34.97;;
67312;Laerm;54211;52.120;5.192;2022-08-25T00:26:21;31.37;29.45;33.84;;
67312;Laerm;54211;52.120;5.192;2022-08-25T00:26:31;31.41;29.48;33.69;;
67312;Laerm;54211;52.120;5.192;2022-08-25T00:26:43;32.00;29.66;34.97;;
67312;Laerm;54211;52.120;5.192;2022-08-25T00:26:55;31.95;29.65;35.09;;
67312;Laerm;54211;52.120;5.192;2022-08-25T00:27:06;31.81;29.29;35.11;;
67312;Laerm;54211;52.120;5.192;2022-08-25T00:27:16;31.57;29.48;34.04;;
67312;Laerm;54211;52.120;5.192;2022-08-25T00:27:27;31.74;29.22;34.92;;
67312;Laerm;54211;52.120;5.192;2022-08-25T00:27:37;31.65;29.70;33.99;;
67312;Laerm;54211;52.120;5.192;2022-08-25T00:27:48;31.67;29.47;34.33;;
67312;Laerm;54211;52.120;5.192;2022-08-25T00:27:59;31.50;29.52;34.30;;
67312;Laerm;54211;52.120;5.192;2022-08-25T00:28:09;31.87;29.71;34.20;;
67312;Laerm;54211;52.120;5.192;2022-08-25T00:28:20;31.71;29.79;34.18;;
67312;Laerm;54211;52.120;5.192;2022-08-25T00:28:30;31.61;29.43;33.90;;
67312;Laerm;54211;52.120;5.192;2022-08-25T00:28:41;31.82;29.45;34.71;;
67312;Laerm;54211;52.120;5.192;2022-08-25T00:28:52;31.69;29.44;34.45;;
67312;Laerm;54211;52.120;5.192;2022-08-25T00:29:03;31.69;29.22;34.83;;
67312;Laerm;54211;52.120;5.192;2022-08-25T00:29:13;31.48;29.26;33.51;;
67312;Laerm;54211;52.120;5.192;2022-08-25T00:29:24;31.59;29.75;33.77;;
67312;Laerm;54211;52.120;5.192;2022-08-25T00:29:35;31.54;29.69;33.70;;
67312;Laerm;54211;52.120;5.192;2022-08-25T00:29:47;31.91;29.56;34.60;;
67312;Laerm;54211;52.120;5.192;2022-08-25T00:29:57;31.82;29.87;34.84;;
67312;Laerm;54211;52.120;5.192;2022-08-25T00:30:09;32.07;29.60;35.31;;
67312;Laerm;54211;52.120;5.192;2022-08-25T00:30:19;31.91;29.71;35.23;;
67312;Laerm;54211;52.120;5.192;2022-08-25T00:30:30;32.28;29.95;34.58;;
67312;Laerm;54211;52.120;5.192;2022-08-25T00:30:41;31.99;29.45;36.10;;
67312;Laerm;54211;52.120;5.192;2022-08-25T00:30:52;31.76;30.01;33.62;;
67312;Laerm;54211;52.120;5.192;2022-08-25T00:31:03;31.52;29.47;33.52;;
67312;Laerm;54211;52.120;5.192;2022-08-25T00:31:15;31.47;29.84;33.06;;
67312;Laerm;54211;52.120;5.192;2022-08-25T00:31:26;31.62;30.00;33.76;;
67312;Laerm;54211;52.120;5.192;2022-08-25T00:31:36;31.62;29.86;34.28;;
67312;Laerm;54211;52.120;5.192;2022-08-25T00:31:47;31.55;29.87;34.53;;
67312;Laerm;54211;52.120;5.192;2022-08-25T00:31:58;31.89;29.71;34.11;;
67312;Laerm;54211;52.120;5.192;2022-08-25T00:32:08;32.16;29.72;35.14;;
67312;Laerm;54211;52.120;5.192;2022-08-25T00:32:19;31.75;30.21;33.98;;
67312;Laerm;54211;52.120;5.192;2022-08-25T00:32:29;31.55;29.75;33.79;;
67312;Laerm;54211;52.120;5.192;2022-08-25T00:32:39;31.64;29.51;34.05;;
67312;Laerm;54211;52.120;5.192;2022-08-25T00:32:50;31.48;30.01;33.34;;
67312;Laerm;54211;52.120;5.192;2022-08-25T00:33:00;31.66;29.83;33.65;;
67312;Laerm;54211;52.120;5.192;2022-08-25T00:33:10;31.55;29.99;34.50;;
67312;Laerm;54211;52.120;5.192;2022-08-25T00:33:21;31.57;29.79;34.06;;
67312;Laerm;54211;52.120;5.192;2022-08-25T00:33:32;32.05;29.75;34.81;;
67312;Laerm;54211;52.120;5.192;2022-08-25T00:33:43;31.90;30.06;34.35;;
67312;Laerm;54211;52.120;5.192;2022-08-25T00:33:54;31.85;29.74;34.34;;
67312;Laerm;54211;52.120;5.192;2022-08-25T00:34:08;31.62;29.59;33.49;;
67312;Laerm;54211;52.120;5.192;2022-08-25T00:34:22;31.71;29.74;34.07;;
67312;Laerm;54211;52.120;5.192;2022-08-25T00:34:34;31.82;30.03;34.77;;
67312;Laerm;54211;52.120;5.192;2022-08-25T00:34:44;31.87;29.82;34.65;;
67312;Laerm;54211;52.120;5.192;2022-08-25T00:34:55;32.10;30.09;35.18;;
67312;Laerm;54211;52.120;5.192;2022-08-25T00:35:05;31.78;30.00;33.95;;
67312;Laerm;54211;52.120;5.192;2022-08-25T00:35:16;31.68;30.09;33.58;;
67312;Laerm;54211;52.120;5.192;2022-08-25T00:35:26;31.62;29.67;33.55;;
67312;Laerm;54211;52.120;5.192;2022-08-25T00:35:37;31.76;30.03;33.39;;
67312;Laerm;54211;52.120;5.192;2022-08-25T00:35:47;31.98;29.76;34.07;;
67312;Laerm;54211;52.120;5.192;2022-08-25T00:35:58;32.08;30.18;35.34;;
67312;Laerm;54211;52.120;5.192;2022-08-25T00:36:09;32.62;29.82;35.42;;
67312;Laerm;54211;52.120;5.192;2022-08-25T00:36:21;32.40;30.09;34.46;;
67312;Laerm;54211;52.120;5.192;2022-08-25T00:36:32;31.78;29.93;33.12;;
67312;Laerm;54211;52.120;5.192;2022-08-25T00:36:43;31.87;29.96;34.38;;
67312;Laerm;54211;52.120;5.192;2022-08-25T00:36:54;31.69;29.82;33.86;;
67312;Laerm;54211;52.120;5.192;2022-08-25T00:37:19;31.81;29.35;34.81;;
67312;Laerm;54211;52.120;5.192;2022-08-25T00:37:30;31.85;29.63;34.19;;
67312;Laerm;54211;52.120;5.192;2022-08-25T00:37:40;31.98;30.21;34.38;;
67312;Laerm;54211;52.120;5.192;2022-08-25T00:37:51;32.36;30.00;34.47;;
67312;Laerm;54211;52.120;5.192;2022-08-25T00:38:01;32.30;30.45;33.91;;
67312;Laerm;54211;52.120;5.192;2022-08-25T00:38:11;32.44;30.44;35.28;;
67312;Laerm;54211;52.120;5.192;2022-08-25T00:38:23;33.37;30.24;36.51;;
67312;Laerm;54211;52.120;5.192;2022-08-25T00:38:33;34.44;30.69;40.07;;
67312;Laerm;54211;52.120;5.192;2022-08-25T00:38:44;33.57;30.14;36.51;;
67312;Laerm;54211;52.120;5.192;2022-08-25T00:38:55;32.89;30.17;36.63;;
67312;Laerm;54211;52.120;5.192;2022-08-25T00:39:06;31.72;29.96;34.00;;
67312;Laerm;54211;52.120;5.192;2022-08-25T00:39:18;31.89;29.42;35.03;;
67312;Laerm;54211;52.120;5.192;2022-08-25T00:39:30;31.13;29.61;33.37;;
67312;Laerm;54211;52.120;5.192;2022-08-25T00:39:40;31.41;29.33;34.83;;
67312;Laerm;54211;52.120;5.192;2022-08-25T00:39:50;30.99;29.17;32.60;;
67312;Laerm;54211;52.120;5.192;2022-08-25T00:40:03;31.45;29.33;33.77;;
67312;Laerm;54211;52.120;5.192;2022-08-25T00:40:14;30.87;29.38;33.52;;
67312;Laerm;54211;52.120;5.192;2022-08-25T00:40:24;31.19;29.41;33.43;;
67312;Laerm;54211;52.120;5.192;2022-08-25T00:40:35;31.00;29.15;33.12;;
67312;Laerm;54211;52.120;5.192;2022-08-25T00:40:46;30.87;29.28;32.49;;
67312;Laerm;54211;52.120;5.192;2022-08-25T00:41:17;30.85;28.76;33.13;;
67312;Laerm;54211;52.120;5.192;2022-08-25T00:41:28;31.15;29.40;33.51;;
67312;Laerm;54211;52.120;5.192;2022-08-25T00:41:40;31.01;29.11;32.92;;
67312;Laerm;54211;52.120;5.192;2022-08-25T00:41:51;30.64;29.13;32.86;;
67312;Laerm;54211;52.120;5.192;2022-08-25T00:42:02;30.69;29.08;32.52;;
67312;Laerm;54211;52.120;5.192;2022-08-25T00:42:13;30.60;28.83;32.92;;
67312;Laerm;54211;52.120;5.192;2022-08-25T00:42:24;30.88;28.99;33.16;;
67312;Laerm;54211;52.120;5.192;2022-08-25T00:42:35;31.06;29.58;33.08;;
67312;Laerm;54211;52.120;5.192;2022-08-25T00:42:46;31.27;28.92;33.45;;
67312;Laerm;54211;52.120;5.192;2022-08-25T00:42:57;31.37;29.19;34.08;;
67312;Laerm;54211;52.120;5.192;2022-08-25T00:43:08;31.39;29.29;34.20;;
67312;Laerm;54211;52.120;5.192;2022-08-25T00:43:18;31.16;28.98;33.41;;
67312;Laerm;54211;52.120;5.192;2022-08-25T00:43:31;31.37;29.34;33.71;;
67312;Laerm;54211;52.120;5.192;2022-08-25T00:43:57;31.82;29.16;34.21;;
67312;Laerm;54211;52.120;5.192;2022-08-25T00:44:10;31.37;29.04;33.67;;
67312;Laerm;54211;52.120;5.192;2022-08-25T00:44:21;32.77;29.73;36.37;;
67312;Laerm;54211;52.120;5.192;2022-08-25T00:44:31;33.19;29.98;36.11;;
67312;Laerm;54211;52.120;5.192;2022-08-25T00:44:43;33.43;29.87;36.89;;
67312;Laerm;54211;52.120;5.192;2022-08-25T00:44:53;33.14;30.34;36.31;;
67312;Laerm;54211;52.120;5.192;2022-08-25T00:45:04;33.13;30.08;35.73;;
67312;Laerm;54211;52.120;5.192;2022-08-25T00:45:15;33.39;29.98;36.94;;
67312;Laerm;54211;52.120;5.192;2022-08-25T00:45:27;33.67;29.75;37.13;;
67312;Laerm;54211;52.120;5.192;2022-08-25T00:45:38;33.55;29.73;36.65;;
67312;Laerm;54211;52.120;5.192;2022-08-25T00:45:49;33.30;30.10;36.31;;
67312;Laerm;54211;52.120;5.192;2022-08-25T00:45:59;33.36;29.91;36.66;;
67312;Laerm;54211;52.120;5.192;2022-08-25T00:46:10;33.17;29.68;36.69;;
67312;Laerm;54211;52.120;5.192;2022-08-25T00:46:23;33.49;29.64;37.28;;
67312;Laerm;54211;52.120;5.192;2022-08-25T00:46:36;33.31;29.59;36.99;;
67312;Laerm;54211;52.120;5.192;2022-08-25T00:46:54;33.23;29.77;36.30;;
67312;Laerm;54211;52.120;5.192;2022-08-25T00:47:05;33.43;29.40;37.66;;
67312;Laerm;54211;52.120;5.192;2022-08-25T00:47:15;32.73;30.00;35.82;;
67312;Laerm;54211;52.120;5.192;2022-08-25T00:47:26;33.17;29.23;35.81;;
67312;Laerm;54211;52.120;5.192;2022-08-25T00:47:37;33.32;30.16;36.31;;
67312;Laerm;54211;52.120;5.192;2022-08-25T00:47:47;33.27;29.87;36.18;;
67312;Laerm;54211;52.120;5.192;2022-08-25T00:47:58;33.68;29.99;36.99;;
67312;Laerm;54211;52.120;5.192;2022-08-25T00:48:08;33.15;30.35;35.42;;
67312;Laerm;54211;52.120;5.192;2022-08-25T00:48:18;33.49;29.94;36.41;;
67312;Laerm;54211;52.120;5.192;2022-08-25T00:48:29;33.36;29.45;36.24;;
67312;Laerm;54211;52.120;5.192;2022-08-25T00:48:40;32.96;29.91;35.94;;
67312;Laerm;54211;52.120;5.192;2022-08-25T00:48:58;33.52;29.34;36.15;;
67312;Laerm;54211;52.120;5.192;2022-08-25T00:49:31;33.41;29.71;36.74;;
67312;Laerm;54211;52.120;5.192;2022-08-25T00:49:47;33.51;30.10;36.36;;
67312;Laerm;54211;52.120;5.192;2022-08-25T00:49:59;33.05;30.24;35.27;;
67312;Laerm;54211;52.120;5.192;2022-08-25T00:50:10;32.91;30.59;35.36;;
67312;Laerm;54211;52.120;5.192;2022-08-25T00:50:21;32.37;29.23;35.41;;
67312;Laerm;54211;52.120;5.192;2022-08-25T00:50:32;31.21;29.28;33.48;;
67312;Laerm;54211;52.120;5.192;2022-08-25T00:50:43;30.82;28.82;32.97;;
67312;Laerm;54211;52.120;5.192;2022-08-25T00:50:54;30.67;28.94;32.89;;
67312;Laerm;54211;52.120;5.192;2022-08-25T00:51:06;30.91;29.23;32.97;;
67312;Laerm;54211;52.120;5.192;2022-08-25T00:51:18;31.55;29.16;36.20;;
67312;Laerm;54211;52.120;5.192;2022-08-25T00:51:36;31.29;29.55;33.60;;
67312;Laerm;54211;52.120;5.192;2022-08-25T00:52:38;31.57;29.66;33.92;;
67312;Laerm;54211;52.120;5.192;2022-08-25T00:52:49;31.84;29.48;34.93;;
67312;Laerm;54211;52.120;5.192;2022-08-25T00:53:01;31.70;29.80;34.33;;
67312;Laerm;54211;52.120;5.192;2022-08-25T00:53:12;31.75;29.75;33.88;;
67312;Laerm;54211;52.120;5.192;2022-08-25T00:53:22;31.68;29.71;33.40;;
67312;Laerm;54211;52.120;5.192;2022-08-25T00:53:33;31.84;29.90;34.14;;
67312;Laerm;54211;52.120;5.192;2022-08-25T00:53:43;31.72;29.91;33.94;;
67312;Laerm;54211;52.120;5.192;2022-08-25T00:53:54;31.88;29.36;35.02;;
67312;Laerm;54211;52.120;5.192;2022-08-25T00:54:04;32.09;29.57;34.91;;
67312;Laerm;54211;52.120;5.192;2022-08-25T00:54:18;31.76;29.64;34.34;;
67312;Laerm;54211;52.120;5.192;2022-08-25T00:54:34;31.93;29.74;34.64;;
67312;Laerm;54211;52.120;5.192;2022-08-25T00:54:51;31.51;29.59;33.61;;
67312;Laerm;54211;52.120;5.192;2022-08-25T00:55:06;31.25;29.64;33.41;;
67312;Laerm;54211;52.120;5.192;2022-08-25T00:55:29;31.50;29.63;33.82;;
67312;Laerm;54211;52.120;5.192;2022-08-25T00:55:39;31.68;29.46;34.25;;
67312;Laerm;54211;52.120;5.192;2022-08-25T00:55:51;32.16;29.81;35.04;;
67312;Laerm;54211;52.120;5.192;2022-08-25T00:56:01;32.06;30.18;34.67;;
67312;Laerm;54211;52.120;5.192;2022-08-25T00:56:12;31.79;29.46;34.59;;
67312;Laerm;54211;52.120;5.192;2022-08-25T00:56:23;31.61;29.21;33.74;;
67312;Laerm;54211;52.120;5.192;2022-08-25T00:56:34;31.19;29.74;32.85;;
67312;Laerm;54211;52.120;5.192;2022-08-25T00:56:45;31.61;29.84;33.85;;
67312;Laerm;54211;52.120;5.192;2022-08-25T00:56:57;32.26;30.22;34.48;;
67312;Laerm;54211;52.120;5.192;2022-08-25T00:57:10;32.25;30.21;34.88;;
67312;Laerm;54211;52.120;5.192;2022-08-25T00:57:24;31.91;30.08;34.87;;
67312;Laerm;54211;52.120;5.192;2022-08-25T00:57:37;31.42;29.59;33.54;;
67312;Laerm;54211;52.120;5.192;2022-08-25T00:58:02;31.28;29.47;33.28;;
67312;Laerm;54211;52.120;5.192;2022-08-25T00:58:20;31.58;29.15;33.90;;
67312;Laerm;54211;52.120;5.192;2022-08-25T00:58:31;32.29;29.63;34.91;;
67312;Laerm;54211;52.120;5.192;2022-08-25T00:58:43;31.64;29.75;34.24;;
67312;Laerm;54211;52.120;5.192;2022-08-25T00:58:53;31.55;29.68;33.55;;
67312;Laerm;54211;52.120;5.192;2022-08-25T00:59:25;31.44;29.63;33.82;;
67312;Laerm;54211;52.120;5.192;2022-08-25T00:59:36;31.74;29.72;34.16;;
67312;Laerm;54211;52.120;5.192;2022-08-25T00:59:46;31.55;29.52;34.26;;
67312;Laerm;54211;52.120;5.192;2022-08-25T00:59:56;31.39;29.85;33.95;;
67312;Laerm;54211;52.120;5.192;2022-08-25T01:00:12;31.59;29.25;34.25;;
67312;Laerm;54211;52.120;5.192;2022-08-25T01:00:28;31.35;29.18;34.20;;
67312;Laerm;54211;52.120;5.192;2022-08-25T01:00:42;30.87;29.03;33.16;;
67312;Laerm;54211;52.120;5.192;2022-08-25T01:00:54;30.91;29.26;33.08;;
67312;Laerm;54211;52.120;5.192;2022-08-25T01:01:06;31.19;29.03;33.45;;
67312;Laerm;54211;52.120;5.192;2022-08-25T01:01:17;30.96;28.48;33.25;;
67312;Laerm;54211;52.120;5.192;2022-08-25T01:01:27;30.85;29.11;32.89;;
67312;Laerm;54211;52.120;5.192;2022-08-25T01:01:39;30.95;29.06;32.94;;
67312;Laerm;54211;52.120;5.192;2022-08-25T01:01:49;31.54;29.32;33.87;;
67312;Laerm;54211;52.120;5.192;2022-08-25T01:02:00;31.41;29.68;33.91;;
67312;Laerm;54211;52.120;5.192;2022-08-25T01:02:11;31.39;29.72;34.23;;
67312;Laerm;54211;52.120;5.192;2022-08-25T01:02:23;31.67;29.08;34.49;;
67312;Laerm;54211;52.120;5.192;2022-08-25T01:02:33;31.48;29.76;34.15;;
67312;Laerm;54211;52.120;5.192;2022-08-25T01:02:44;31.38;29.35;33.10;;
67312;Laerm;54211;52.120;5.192;2022-08-25T01:02:55;31.47;29.74;34.30;;
67312;Laerm;54211;52.120;5.192;2022-08-25T01:03:07;31.55;29.37;34.18;;
67312;Laerm;54211;52.120;5.192;2022-08-25T01:03:17;31.44;29.35;33.98;;
67312;Laerm;54211;52.120;5.192;2022-08-25T01:03:29;31.68;28.91;34.91;;
67312;Laerm;54211;52.120;5.192;2022-08-25T01:03:55;31.48;29.03;34.72;;
67312;Laerm;54211;52.120;5.192;2022-08-25T01:04:05;31.62;29.15;34.31;;
67312;Laerm;54211;52.120;5.192;2022-08-25T01:04:17;31.52;29.26;34.66;;
67312;Laerm;54211;52.120;5.192;2022-08-25T01:04:30;31.20;29.45;33.33;;
67312;Laerm;54211;52.120;5.192;2022-08-25T01:04:41;31.33;29.38;33.25;;
67312;Laerm;54211;52.120;5.192;2022-08-25T01:04:52;31.68;29.09;34.74;;
67312;Laerm;54211;52.120;5.192;2022-08-25T01:05:02;31.51;29.61;34.43;;
67312;Laerm;54211;52.120;5.192;2022-08-25T01:05:13;31.28;29.46;33.49;;
67312;Laerm;54211;52.120;5.192;2022-08-25T01:05:24;31.43;29.27;33.97;;
67312;Laerm;54211;52.120;5.192;2022-08-25T01:05:36;31.31;29.44;33.61;;
67312;Laerm;54211;52.120;5.192;2022-08-25T01:05:47;31.35;29.26;34.34;;
67312;Laerm;54211;52.120;5.192;2022-08-25T01:05:57;31.45;29.35;33.87;;
67312;Laerm;54211;52.120;5.192;2022-08-25T01:06:08;31.34;29.50;33.69;;
67312;Laerm;54211;52.120;5.192;2022-08-25T01:06:20;31.55;29.50;33.81;;
67312;Laerm;54211;52.120;5.192;2022-08-25T01:06:31;31.43;29.49;33.57;;
67312;Laerm;54211;52.120;5.192;2022-08-25T01:06:43;31.35;28.98;33.68;;
67312;Laerm;54211;52.120;5.192;2022-08-25T01:06:54;32.05;29.75;35.44;;
67312;Laerm;54211;52.120;5.192;2022-08-25T01:07:05;31.49;29.54;33.55;;